Impacts METAR Board
IDs:

KACT - Waco Rgnl, TX, US

Updated at: 0100 UTC 15 Aug 2020
Potential Impact None Slight Moderate High
Time 14/13Z 14/14Z 14/15Z 14/16Z 14/17Z 14/18Z 14/19Z 14/20Z 14/21Z 14/22Z 14/23Z 15/00Z 15/01Z
Temp81 85 89 93 97 100 101 102 104 105 104 102 98
Dewpt71 71 71 69 69 68 65 64 62 61 60 59 60
Altim29.92 29.93 29.93 29.93 29.92 29.90 29.89 29.86 29.83 29.81 29.80 29.79 29.80
VIS10 10 10 10 10 10 10 10 10 10 10 10 10
CIG-- -- -- -- -- -- -- -- -- -- -- -- --
CoverCLRCLRCLRCLRCLRCLRCLRCLRCLRCLRCLRCLRCLR
FltCatVFRVFRVFRVFRVFRVFRVFRVFRVFRVFRVFRVFRVFR
WX--------------------------
WDir1902102102201701601600170170140160170
WSpd8 8 12 11 11 12 11 5 9 10 11 12 12
WGst-- -- -- 19 -- -- -- 16 -- -- -- -- --
Raw hourly METARs
KACT 141251Z AUTO 19008KT 10SM CLR 27/22 A2992 RMK AO2 SLP122 T02720217 $
KACT 141351Z 21008KT 10SM CLR 29/22 A2993 RMK AO2 SLP126 T02940217 $
KACT 141451Z 21012KT 10SM CLR 32/22 A2993 RMK AO2 SLP127 T03170217 51009 $
KACT 141551Z 22011G19KT 10SM CLR 34/21 A2993 RMK AO2 SLP127 T03390206 $
KACT 141651Z 17011KT 10SM CLR 36/21 A2992 RMK AO2 SLP123 T03610206 $
KACT 141751Z 16012KT 10SM CLR 38/20 A2990 RMK AO2 SLP116 T03780200 10378 20261 58010 $
KACT 141851Z 16011KT 10SM CLR 38/18 A2989 RMK AO2 SLP110 T03830183 $
KACT 141951Z VRB05G16KT 10SM CLR 39/18 A2986 RMK AO2 SLP102 T03890178 $
KACT 142051Z 17009KT 10SM CLR 40/17 A2983 RMK AO2 SLP092 T04000167 58024 $
KACT 142151Z 17010KT 10SM CLR 41/16 A2981 RMK AO2 SLP083 T04060161 $
KACT 142251Z 14011KT 10SM CLR 40/16 A2980 RMK AO2 SLP080 T04000156
KACT 142351Z 16012KT 10SM CLR 39/15 A2979 RMK AO2 SLP078 T03890150 10406 20372 56015
KACT 150051Z 17012KT 10SM CLR 37/16 A2980 RMK AO2 SLP081 T03670156